Página principal
METAR-TAF:

METAR-TAF

Aeroportos :

Kulob, Tadjiquistão

latitude: 37-59-18N, longitude: 069-48-18E, altura: 699 m

Observação actual do tempo

O boletim foi feito há 17 minutos, às 12:30 UTC
Vento calmo
Temperatura 11°C
Humidade 87%
Pressão 1023 hPa
Visibilidade: 8000 m
Nuvens fragmentadasa uma altura de 5100 ft, Cumulonimbus.
Encobertoa uma altura de 9000 ft
aguaceiros fracos de chuva

METAR: UTDK 181230Z 00000MPS 8000 -SHRA BKN051CB OVC090 11/09 Q1023 R01/29//50 RMK QFE709/0945

Hora: 17:47 (12:47 UTC)

Previsão

O boletim foi feito há 47 minutos, às 12:00 UTC
Previsão válida de 18 às 13 UTC a 18 às 22 UTC
Vento 10 kt de nor-nordeste
Visibilidade: 6000 m
Nuvens dispersasa uma altura de 3000 ft, Cumulonimbus.
Nuvens fragmentadasa uma altura de 7000 ft
Temporariamente
de 18 às 13 UTC a 18 às 22 UTC
Vento 4 kt com direcção variável
Visibilidade: 3100 m
aguaceiros fracos de chuva, neblina

TAF: UTDK 181200Z 1813/1822 03005MPS 6000 SCT030CB BKN070 TEMPO 1813/1822 VRB02MPS 3100 -SHRA BR

Observações e previsões do tempo de mais de 4000 aeroportos (mensagens METAR e TAF).

As estações disponíveis são os pontos amarelos e vermelhos sobre o mapa.

Mova o rato sobre o mapa para ver o nome da estação.

Depois clique no ponto para visualizar as observações e previsões meteorológicas.

Para alterar o mapa : clique nos botões verdes com uma cruz preta para aumentar o zoom; no botão verde com uma pitada de zoom; ou nas setas verdes para mapas adjacentes.


METAR-TAF: